Henrique Dias — PPLQ — position and weather

sailwx.info

Track history (hours):
 
Tides and Currents Weather Stations Pressure Air Temp Water Temp Dewpoint Dewpoint Depression Visibility Wind Speed Wind Dir Waves Ship Positions

Henrique Dias

Last reported at 2018-Jun-14 02:47 UTC. Time now 2018-Jun-19 12:31 UTC.
Position N 14°02' W 061°05'.

Length 274 m; draft 16.8 m.

Type: Ship. MMSI: 710020930.

Date/timePositionNaut miles runAvg speedWind from/ knotsBaromVisibWave heightAir tempDewpointWater temp
2018-Jun-14 02:47N 14°02' W 061°05'2 0.3
2018-Jun-13 19:03N 14°04' W 061°04'0 1.1
2018-Jun-13 18:57N 14°04' W 061°04'1 1.2
2018-Jun-13 18:28N 14°04' W 061°04'2 1.3
2018-Jun-13 17:06N 14°06' W 061°03'0 1.7
2018-Jun-13 16:51N 14°05' W 061°04'0 1.2
2018-Jun-13 16:30N 14°05' W 061°04'1 1.1
2018-Jun-13 15:42N 14°04' W 061°05'1 0.5
2018-Jun-13 13:26N 14°04' W 061°05'0 0.6
2018-Jun-13 13:00N 14°04' W 061°06'1 2.0
2018-Jun-13 12:30N 14°03' W 061°06'1 1.1
2018-Jun-13 11:52N 14°02' W 061°06'0 0.3
2018-Jun-13 11:30N 14°02' W 061°06'0 0.4
2018-Jun-13 10:17N 14°02' W 061°06'27 9.2
2018-Jun-13 07:22N 13°36' W 060°56'  
Track history (hours):
 
Tides and Currents Weather Stations Pressure Air Temp Water Temp Dewpoint Dewpoint Depression Visibility Wind Speed Wind Dir Waves Ship Positions

Henrique Dias

Last reported at 2018-Jun-14 02:47 UTC. Time now 2018-Jun-19 12:31 UTC.
Position N 14°02' W 061°05'.

Length 274 m; draft 16.8 m.

Type: Ship. MMSI: 710020930.

Date/timePositionNaut miles runAvg speedWind from/ knotsBaromVisibWave heightAir tempDewpointWater temp
2018-Jun-14 02:47N 14°02' W 061°05'2 0.3
2018-Jun-13 19:03N 14°04' W 061°04'0 1.1
2018-Jun-13 18:57N 14°04' W 061°04'1 1.2
2018-Jun-13 18:28N 14°04' W 061°04'2 1.3
2018-Jun-13 17:06N 14°06' W 061°03'0 1.7
2018-Jun-13 16:51N 14°05' W 061°04'0 1.2
2018-Jun-13 16:30N 14°05' W 061°04'1 1.1
2018-Jun-13 15:42N 14°04' W 061°05'1 0.5
2018-Jun-13 13:26N 14°04' W 061°05'0 0.6
2018-Jun-13 13:00N 14°04' W 061°06'1 2.0
2018-Jun-13 12:30N 14°03' W 061°06'1 1.1
2018-Jun-13 11:52N 14°02' W 061°06'0 0.3
2018-Jun-13 11:30N 14°02' W 061°06'0 0.4
2018-Jun-13 10:17N 14°02' W 061°06'27 9.2
2018-Jun-13 07:22N 13°36' W 060°56'  

Dump ship's entire track history